Time;durP1;ratioP1;P1;durP2;ratioP2;P2;SDS_P1;SDS_P2;PMS_P1;PMS_P2;Temp;Humidity;BMP_temperature;BMP_pressure;BME280_temperature;BME280_humidity;BME280_pressure;Samples;Min_cycle;Max_cycle;Signal;HPM_P1;HPM_P2
2023/11/13 00:02:03;;;;;;;3.22;2.88;;;3.90;99.90;;;;;;5001738;28;20042;-66
2023/11/13 00:04:29;;;;;;;5.88;3.00;;;3.80;99.90;;;;;;5004054;28;20049;-66
2023/11/13 00:06:55;;;;;;;3.85;2.40;;;3.80;99.90;;;;;;5035393;28;20393;-66
2023/11/13 00:09:20;;;;;;;4.50;2.03;;;3.80;99.90;;;;;;5006825;28;20046;-66
2023/11/13 00:11:46;;;;;;;4.63;2.83;;;3.80;99.90;;;;;;5005139;28;20038;-66
2023/11/13 00:14:12;;;;;;;3.60;2.17;;;3.80;99.90;;;;;;5005340;28;20508;-66
2023/11/13 00:16:38;;;;;;;3.58;2.40;;;3.70;99.90;;;;;;5005162;28;20408;-66
2023/11/13 00:19:03;;;;;;;2.25;2.05;;;3.70;99.90;;;;;;4999446;28;20213;-66
2023/11/13 00:21:29;;;;;;;3.35;2.17;;;3.70;99.90;;;;;;4999920;28;20034;-66
2023/11/13 00:23:58;;;;;;;4.55;2.58;;;3.60;99.90;;;;;;5002100;28;20041;-66
2023/11/13 00:26:25;;;;;;;2.40;1.58;;;3.70;99.90;;;;;;5001502;28;20041;-66
2023/11/13 00:28:51;;;;;;;3.50;2.45;;;3.50;99.90;;;;;;5003756;28;20081;-66
2023/11/13 00:31:17;;;;;;;4.22;2.50;;;3.50;99.90;;;;;;5000080;28;20129;-66
2023/11/13 00:33:43;;;;;;;2.67;1.88;;;3.50;99.90;;;;;;4999885;28;20086;-66
2023/11/13 00:36:09;;;;;;;4.07;2.17;;;3.50;99.90;;;;;;4995329;28;20486;-66
2023/11/13 00:38:35;;;;;;;4.32;2.72;;;3.40;99.90;;;;;;5004195;28;20057;-67
2023/11/13 00:41:00;;;;;;;2.95;1.70;;;3.40;99.90;;;;;;5009421;28;20041;-66
2023/11/13 00:43:26;;;;;;;3.95;2.35;;;3.40;99.90;;;;;;5006071;28;20046;-66
2023/11/13 00:45:52;;;;;;;3.28;2.58;;;3.40;99.90;;;;;;5035876;28;20158;-66
2023/11/13 00:48:20;;;;;;;3.88;2.38;;;3.30;99.90;;;;;;5002144;28;20049;-66
2023/11/13 00:50:46;;;;;;;2.78;2.10;;;3.30;99.90;;;;;;4999668;28;20037;-66
2023/11/13 00:53:12;;;;;;;5.40;2.67;;;3.20;99.90;;;;;;5026254;28;20065;-66
2023/11/13 00:55:37;;;;;;;3.05;1.88;;;3.20;99.90;;;;;;5002168;28;20073;-66
2023/11/13 00:58:04;;;;;;;4.13;1.75;;;3.20;99.90;;;;;;5002238;28;20030;-66
2023/11/13 01:00:31;;;;;;;3.22;1.67;;;3.10;99.90;;;;;;4998133;28;20046;-66
2023/11/13 01:02:58;;;;;;;2.33;1.92;;;3.10;99.90;;;;;;5000856;28;20081;-66
2023/11/13 01:05:24;;;;;;;4.03;2.08;;;3.10;99.90;;;;;;5005684;28;20038;-67
2023/11/13 01:07:50;;;;;;;2.58;1.88;;;3.10;99.90;;;;;;5003212;28;20604;-66
2023/11/13 01:10:16;;;;;;;3.10;2.45;;;2.90;99.90;;;;;;4999927;28;20033;-66
2023/11/13 01:12:41;;;;;;;3.25;2.20;;;2.90;99.90;;;;;;5004052;28;20487;-66
2023/11/13 01:15:09;;;;;;;2.45;1.75;;;2.90;99.90;;;;;;5035941;28;20310;-66
2023/11/13 01:17:35;;;;;;;1.95;1.48;;;2.90;99.90;;;;;;5006093;28;20105;-66
2023/11/13 01:20:06;;;;;;;3.28;2.25;;;2.80;99.90;;;;;;5001083;28;20073;-66
2023/11/13 01:22:32;;;;;;;2.13;1.63;;;2.80;99.90;;;;;;5000946;28;20056;-66
2023/11/13 01:24:58;;;;;;;2.42;1.92;;;2.80;99.90;;;;;;5007589;28;20038;-66
2023/11/13 01:27:23;;;;;;;2.17;1.52;;;2.80;99.90;;;;;;4998763;28;20041;-66
2023/11/13 01:29:49;;;;;;;13.23;1.98;;;2.80;99.90;;;;;;5001866;28;20041;-66
2023/11/13 01:32:15;;;;;;;5.00;2.13;;;2.80;99.90;;;;;;5009618;28;20045;-66
2023/11/13 01:34:41;;;;;;;2.40;1.67;;;2.80;99.90;;;;;;5009891;28;20511;-66
2023/11/13 01:37:06;;;;;;;2.60;1.90;;;2.80;99.90;;;;;;5006673;28;20092;-66
2023/11/13 01:39:32;;;;;;;1.95;1.30;;;2.80;99.90;;;;;;5037063;28;20137;-66
2023/11/13 01:41:58;;;;;;;2.13;1.85;;;2.80;99.90;;;;;;5007752;28;21296;-66
2023/11/13 01:44:24;;;;;;;2.25;1.48;;;2.80;99.90;;;;;;5009526;28;20100;-66
2023/11/13 01:46:51;;;;;;;1.13;1.00;;;2.80;99.90;;;;;;5006862;28;20049;-66
2023/11/13 01:49:19;;;;;;;2.05;1.23;;;2.70;99.90;;;;;;5005427;28;20093;-66
2023/11/13 01:51:48;;;;;;;2.38;1.70;;;2.70;99.90;;;;;;5006814;28;20536;-66
2023/11/13 01:54:17;;;;;;;11.60;1.35;;;2.80;99.90;;;;;;5008924;28;20057;-66
2023/11/13 01:56:43;;;;;;;1.40;1.25;;;2.70;99.90;;;;;;5009856;28;20045;-66
2023/11/13 01:59:13;;;;;;;1.20;1.00;;;2.80;99.90;;;;;;5011316;28;20034;-66
2023/11/13 02:01:41;;;;;;;11.63;1.05;;;2.70;99.90;;;;;;5038322;28;20050;-66
2023/11/13 02:04:06;;;;;;;1.48;1.10;;;2.70;99.90;;;;;;5008653;28;20478;-66
2023/11/13 02:06:32;;;;;;;0.88;0.77;;;2.70;99.90;;;;;;5007541;28;20050;-66
2023/11/13 02:08:58;;;;;;;1.85;1.27;;;2.70;99.90;;;;;;5005153;28;20136;-66
2023/11/13 02:11:25;;;;;;;1.42;1.00;;;2.70;99.90;;;;;;5006378;28;20355;-66
2023/11/13 02:13:53;;;;;;;8.48;0.93;;;2.70;99.90;;;;;;5010308;28;20137;-66
2023/11/13 02:16:19;;;;;;;1.67;1.38;;;2.70;99.90;;;;;;5005256;28;20038;-66
2023/11/13 02:18:45;;;;;;;1.02;0.80;;;2.60;99.90;;;;;;5006158;28;20434;-66
2023/11/13 02:21:11;;;;;;;1.33;1.20;;;2.60;99.90;;;;;;5006828;28;20033;-66
2023/11/13 02:23:37;;;;;;;1.05;0.95;;;2.50;99.90;;;;;;5036112;28;20042;-66
2023/11/13 02:26:14;;;;;;;2.08;1.50;;;2.50;99.90;;;;;;5010800;28;20517;-66
2023/11/13 02:28:40;;;;;;;2.17;1.67;;;2.40;99.90;;;;;;5005185;28;20113;-66
2023/11/13 02:31:06;;;;;;;1.30;1.13;;;2.40;99.90;;;;;;5004032;28;20038;-66
2023/11/13 02:33:32;;;;;;;1.15;1.05;;;2.40;99.90;;;;;;5010235;28;20591;-66
2023/11/13 02:35:58;;;;;;;1.52;1.00;;;2.40;99.90;;;;;;5001591;28;20383;-66
2023/11/13 02:38:23;;;;;;;24.70;1.80;;;2.40;99.90;;;;;;5009862;28;20037;-66
2023/11/13 02:40:49;;;;;;;1.95;1.45;;;2.30;99.90;;;;;;5007230;28;20478;-66
2023/11/13 02:43:15;;;;;;;0.88;0.75;;;2.30;99.90;;;;;;5033474;28;20110;-66
2023/11/13 02:45:41;;;;;;;1.55;1.38;;;2.30;99.90;;;;;;5039527;28;20730;-66
2023/11/13 02:48:07;;;;;;;10.18;1.17;;;2.30;99.90;;;;;;5038066;28;20382;-66
2023/11/13 02:50:32;;;;;;;6.60;0.90;;;2.40;99.90;;;;;;5006962;28;20061;-66
2023/11/13 02:52:58;;;;;;;1.50;0.82;;;2.40;99.90;;;;;;5004204;28;20062;-66
2023/11/13 02:55:24;;;;;;;1.70;1.33;;;2.40;99.90;;;;;;5001081;28;20065;-66
2023/11/13 02:57:52;;;;;;;1.42;1.17;;;2.40;99.90;;;;;;5007261;28;20050;-66
2023/11/13 03:00:19;;;;;;;1.52;1.23;;;2.40;99.90;;;;;;5006641;28;20049;-66
2023/11/13 03:02:45;;;;;;;1.92;1.65;;;2.30;99.90;;;;;;5040992;28;20049;-66
2023/11/13 03:05:11;;;;;;;1.58;1.33;;;2.40;99.90;;;;;;4999879;28;20070;-66
2023/11/13 03:07:37;;;;;;;3.70;1.88;;;2.40;99.90;;;;;;5005952;28;20074;-66
2023/11/13 03:10:03;;;;;;;1.55;1.20;;;2.30;99.90;;;;;;5003332;28;20142;-66
2023/11/13 03:12:29;;;;;;;2.20;1.65;;;2.40;99.90;;;;;;5034727;28;20494;-66
2023/11/13 03:14:55;;;;;;;3.67;2.05;;;2.40;99.90;;;;;;5001099;28;20042;-66
2023/11/13 03:17:20;;;;;;;2.25;2.03;;;2.30;99.90;;;;;;5007427;28;20509;-66
2023/11/13 03:19:46;;;;;;;4.45;1.92;;;2.40;99.90;;;;;;5005701;28;20042;-66
2023/11/13 03:22:12;;;;;;;2.20;1.88;;;2.30;99.90;;;;;;5040027;28;20490;-66
2023/11/13 03:24:38;;;;;;;2.53;1.70;;;2.40;99.90;;;;;;5003480;28;20105;-66
2023/11/13 03:27:04;;;;;;;3.38;2.28;;;2.40;99.90;;;;;;5006325;28;20164;-66
2023/11/13 03:29:30;;;;;;;1.60;1.25;;;2.50;99.90;;;;;;5000341;28;20038;-66
2023/11/13 03:31:55;;;;;;;2.38;1.58;;;2.50;99.90;;;;;;5008594;28;20034;-65
2023/11/13 03:34:21;;;;;;;2.53;1.95;;;2.50;99.90;;;;;;5006606;28;20034;-64
2023/11/13 03:36:47;;;;;;;2.50;1.63;;;2.50;99.90;;;;;;5002200;28;20042;-65
2023/11/13 03:39:14;;;;;;;2.92;1.67;;;2.60;99.90;;;;;;5008298;28;20038;-64
2023/11/13 03:41:40;;;;;;;2.38;1.58;;;2.60;99.90;;;;;;4997288;28;20042;-66
2023/11/13 03:44:06;;;;;;;2.55;1.73;;;2.60;99.90;;;;;;5000075;28;20512;-64
2023/11/13 03:46:32;;;;;;;2.35;2.05;;;2.60;99.90;;;;;;5004448;28;20449;-65
2023/11/13 03:48:58;;;;;;;1.95;1.48;;;2.70;99.90;;;;;;5001019;28;20038;-64
2023/11/13 03:51:24;;;;;;;3.13;1.85;;;2.80;99.90;;;;;;4997258;28;20080;-63
2023/11/13 03:53:53;;;;;;;2.15;1.77;;;2.80;99.90;;;;;;5000826;28;20066;-64
2023/11/13 03:56:20;;;;;;;2.20;2.00;;;2.80;99.90;;;;;;5000604;28;20034;-64
2023/11/13 03:58:46;;;;;;;3.03;2.38;;;2.90;99.90;;;;;;5002457;28;20092;-64
2023/11/13 04:01:13;;;;;;;1.10;0.95;;;2.90;99.90;;;;;;4997636;28;20121;-65
2023/11/13 04:03:39;;;;;;;3.17;1.38;;;2.90;99.90;;;;;;5035343;28;20506;-64
2023/11/13 04:06:05;;;;;;;2.63;1.77;;;3.00;99.90;;;;;;5031398;28;20085;-65
2023/11/13 04:08:31;;;;;;;2.13;1.88;;;3.10;99.90;;;;;;5031918;28;20340;-64
2023/11/13 04:10:56;;;;;;;11.02;2.90;;;3.10;99.90;;;;;;4997506;28;20068;-64
2023/11/13 04:13:24;;;;;;;2.22;1.02;;;3.20;99.90;;;;;;4999399;28;20078;-65
2023/11/13 04:15:50;;;;;;;2.63;1.90;;;3.20;99.90;;;;;;4998621;28;20062;-64
2023/11/13 04:18:16;;;;;;;3.70;1.42;;;3.30;99.90;;;;;;5001281;28;20164;-64
2023/11/13 04:20:42;;;;;;;3.47;1.95;;;3.30;99.90;;;;;;4997319;28;20121;-65
2023/11/13 04:23:08;;;;;;;5.20;2.35;;;3.30;99.90;;;;;;5003981;28;20475;-65
2023/11/13 04:25:34;;;;;;;1.83;1.65;;;3.30;99.90;;;;;;5037427;28;20042;-65
2023/11/13 04:28:01;;;;;;;2.92;2.10;;;3.40;99.90;;;;;;5001043;28;20134;-65
2023/11/13 04:30:27;;;;;;;2.97;1.92;;;3.50;99.90;;;;;;5002852;28;20038;-61
2023/11/13 04:32:52;;;;;;;2.63;2.28;;;3.40;99.90;;;;;;5026605;28;20046;-65
2023/11/13 04:35:18;;;;;;;2.78;1.70;;;3.50;99.90;;;;;;5004009;28;20038;-64
2023/11/13 04:37:45;;;;;;;4.07;2.47;;;3.50;99.90;;;;;;5000701;28;20394;-63
2023/11/13 04:40:11;;;;;;;2.75;1.83;;;3.40;99.90;;;;;;5000979;28;20553;-64
2023/11/13 04:42:38;;;;;;;5.35;3.50;;;3.40;99.90;;;;;;5004393;28;20136;-64
2023/11/13 04:45:04;;;;;;;3.38;2.33;;;3.50;99.90;;;;;;5001538;28;20046;-65
2023/11/13 04:47:30;;;;;;;1.25;0.93;;;3.50;99.90;;;;;;5003379;28;20104;-64
2023/11/13 04:49:57;;;;;;;1.60;1.30;;;3.50;99.90;;;;;;5001224;28;20038;-64
2023/11/13 04:52:23;;;;;;;3.67;2.38;;;3.50;99.90;;;;;;5001769;28;20619;-64
2023/11/13 04:54:49;;;;;;;3.78;1.73;;;3.60;99.90;;;;;;5008622;28;20092;-64
2023/11/13 04:57:15;;;;;;;2.22;1.27;;;3.60;99.90;;;;;;5001919;28;20108;-64
2023/11/13 04:59:40;;;;;;;3.33;1.50;;;3.60;99.90;;;;;;5006091;28;20044;-64
2023/11/13 05:02:07;;;;;;;2.88;1.38;;;3.60;99.90;;;;;;5002410;28;20034;-64
2023/11/13 05:04:33;;;;;;;2.63;1.35;;;3.60;99.90;;;;;;5003125;28;20037;-64
2023/11/13 05:06:59;;;;;;;3.13;1.90;;;3.60;99.90;;;;;;5005934;28;20038;-64
2023/11/13 05:09:26;;;;;;;2.67;2.03;;;3.70;99.90;;;;;;5040501;28;20046;-64
2023/11/13 05:11:52;;;;;;;2.85;1.73;;;3.70;99.90;;;;;;5006401;28;20048;-64
2023/11/13 05:14:18;;;;;;;3.45;2.25;;;3.70;99.90;;;;;;5009411;28;20548;-64
2023/11/13 05:16:44;;;;;;;2.88;1.55;;;3.70;99.90;;;;;;5036752;28;20467;-64
2023/11/13 05:19:09;;;;;;;5.25;2.05;;;3.70;99.90;;;;;;4999718;28;20129;-64
2023/11/13 05:21:35;;;;;;;2.47;1.92;;;3.70;99.90;;;;;;5004548;28;20048;-65
2023/11/13 05:24:01;;;;;;;2.65;1.65;;;3.70;99.90;;;;;;5043282;28;20042;-64
2023/11/13 05:26:27;;;;;;;2.35;1.58;;;3.60;99.90;;;;;;5001567;28;20034;-64
2023/11/13 05:28:55;;;;;;;6.60;1.88;;;3.70;99.90;;;;;;5002499;28;20116;-65
2023/11/13 05:31:21;;;;;;;2.38;1.75;;;3.70;99.90;;;;;;5038164;28;20152;-64
2023/11/13 05:33:47;;;;;;;3.95;1.92;;;3.70;99.90;;;;;;5011744;28;20061;-64
2023/11/13 05:36:13;;;;;;;3.03;1.88;;;3.60;99.90;;;;;;5006758;28;20042;-64
2023/11/13 05:38:42;;;;;;;2.28;1.73;;;3.60;99.90;;;;;;5009683;28;20120;-64
2023/11/13 05:41:08;;;;;;;3.97;2.17;;;3.60;99.90;;;;;;5005887;28;20038;-64
2023/11/13 05:43:34;;;;;;;1.98;1.10;;;3.60;99.90;;;;;;5008045;28;20044;-64
2023/11/13 05:46:01;;;;;;;3.05;2.08;;;3.70;99.90;;;;;;5005205;28;20038;-64
2023/11/13 05:48:27;;;;;;;8.13;4.30;;;3.70;99.90;;;;;;5038339;28;20413;-65
2023/11/13 05:50:53;;;;;;;3.28;2.60;;;3.70;99.90;;;;;;5008381;28;20045;-65
2023/11/13 05:53:19;;;;;;;2.80;1.58;;;3.70;99.90;;;;;;5006380;28;20075;-64
2023/11/13 05:55:45;;;;;;;2.58;1.60;;;3.70;99.90;;;;;;5037103;28;20038;-64
2023/11/13 05:58:11;;;;;;;3.05;2.30;;;3.70;99.90;;;;;;5037531;28;20073;-64
2023/11/13 06:00:37;;;;;;;2.55;1.83;;;3.80;99.90;;;;;;5005309;28;20034;-64
2023/11/13 06:03:02;;;;;;;3.13;2.08;;;3.70;99.90;;;;;;5043500;28;20454;-64
2023/11/13 06:05:28;;;;;;;4.22;2.97;;;3.60;99.90;;;;;;5007797;28;20145;-65
2023/11/13 06:07:54;;;;;;;4.07;2.10;;;3.70;99.90;;;;;;5005282;28;20667;-64
2023/11/13 06:10:21;;;;;;;2.20;1.60;;;3.60;99.90;;;;;;5005751;28;20042;-64
2023/11/13 06:12:46;;;;;;;3.97;1.77;;;3.70;99.90;;;;;;5009273;28;20033;-65
2023/11/13 06:15:16;;;;;;;3.38;2.10;;;3.70;99.90;;;;;;5035023;28;20153;-64
2023/11/13 06:17:44;;;;;;;2.47;1.77;;;3.60;99.90;;;;;;5008904;28;20038;-65
2023/11/13 06:20:14;;;;;;;3.40;1.92;;;3.70;99.90;;;;;;5000908;28;20677;-62
2023/11/13 06:22:41;;;;;;;1.90;1.67;;;3.60;99.90;;;;;;5004528;28;20034;-63
2023/11/13 06:25:07;;;;;;;4.57;1.90;;;3.60;99.90;;;;;;5006780;28;20441;-65
2023/11/13 06:27:34;;;;;;;2.00;1.42;;;3.60;99.90;;;;;;5004307;28;20046;-64
2023/11/13 06:30:00;;;;;;;2.83;1.90;;;3.70;99.90;;;;;;5005021;28;20054;-64
2023/11/13 06:32:28;;;;;;;2.15;1.45;;;3.60;99.90;;;;;;5007538;28;20107;-63
2023/11/13 06:34:54;;;;;;;2.30;2.00;;;3.60;99.90;;;;;;5007612;28;20029;-64
2023/11/13 06:37:19;;;;;;;4.70;3.15;;;3.60;99.90;;;;;;5006062;28;20048;-64
2023/11/13 06:39:45;;;;;;;10.95;2.30;;;3.60;99.90;;;;;;5001583;28;20486;-64
2023/11/13 06:42:11;;;;;;;2.55;1.70;;;3.60;99.90;;;;;;5002716;28;20109;-65
2023/11/13 06:44:38;;;;;;;5.70;3.45;;;3.60;99.90;;;;;;5001014;28;20406;-64
2023/11/13 06:47:05;;;;;;;3.30;1.67;;;3.60;99.90;;;;;;5006366;28;20049;-64
2023/11/13 06:49:30;;;;;;;5.38;1.80;;;3.60;99.90;;;;;;5005903;28;20397;-64
2023/11/13 06:51:56;;;;;;;5.30;2.17;;;3.60;99.90;;;;;;5003786;28;20046;-64
2023/11/13 06:54:23;;;;;;;1.98;1.75;;;3.60;99.90;;;;;;5005139;28;20057;-64
2023/11/13 06:56:48;;;;;;;3.63;1.75;;;3.60;99.90;;;;;;5002417;28;20042;-65
2023/11/13 06:59:15;;;;;;;3.30;2.30;;;3.60;99.90;;;;;;5006450;28;20038;-65
2023/11/13 07:01:41;;;;;;;3.05;1.88;;;3.60;99.90;;;;;;5000814;28;20064;-65
2023/11/13 07:04:10;;;;;;;4.68;2.63;;;3.70;99.90;;;;;;4995907;28;20046;-64
2023/11/13 07:06:39;;;;;;;2.17;1.52;;;3.60;99.90;;;;;;5003634;28;20382;-65
2023/11/13 07:09:11;;;;;;;3.72;2.47;;;3.70;99.90;;;;;;5005789;28;20037;-64
2023/11/13 07:11:44;;;;;;;2.08;1.33;;;3.70;99.90;;;;;;5008415;28;20081;-64
2023/11/13 07:14:11;;;;;;;1.70;1.40;;;3.70;99.90;;;;;;5013620;28;20501;-64
2023/11/13 07:19:34;;;;;;;1.50;1.38;;;3.80;99.90;;;;;;5000619;28;20621;-64
2023/11/13 07:22:01;;;;;;;3.40;1.42;;;3.80;99.90;;;;;;5008104;28;20043;-64
2023/11/13 07:24:27;;;;;;;7.18;1.83;;;3.80;99.90;;;;;;5001649;28;20063;-63
2023/11/13 07:26:53;;;;;;;3.63;2.58;;;3.90;99.90;;;;;;5006900;28;20470;-64
2023/11/13 07:29:19;;;;;;;2.80;1.85;;;3.90;99.90;;;;;;5007475;28;20486;-65
2023/11/13 07:31:44;;;;;;;3.55;1.85;;;4.00;99.90;;;;;;5004909;28;20124;-64
2023/11/13 07:34:13;;;;;;;2.15;1.48;;;4.00;99.90;;;;;;5008068;28;20072;-64
2023/11/13 07:36:53;;;;;;;2.13;1.77;;;4.00;99.90;;;;;;5019479;28;20111;-65
2023/11/13 07:39:22;;;;;;;5.80;2.55;;;4.10;99.90;;;;;;5038534;28;20038;-64
2023/11/13 07:41:47;;;;;;;3.30;1.50;;;4.10;99.90;;;;;;5003949;28;20120;-64
2023/11/13 07:44:14;;;;;;;1.42;1.33;;;4.10;99.90;;;;;;5004025;28;20045;-64
2023/11/13 07:46:40;;;;;;;3.22;1.83;;;4.20;99.90;;;;;;5007044;28;20034;-64
2023/11/13 07:49:08;;;;;;;4.00;2.38;;;4.20;99.90;;;;;;5009325;28;20045;-64
2023/11/13 07:51:33;;;;;;;2.13;1.67;;;4.20;99.90;;;;;;5003908;28;20042;-64
2023/11/13 07:54:00;;;;;;;4.35;2.13;;;4.20;99.90;;;;;;5002909;28;20081;-65
2023/11/13 07:56:26;;;;;;;3.05;1.98;;;4.40;99.90;;;;;;5038129;28;20409;-65
2023/11/13 07:58:51;;;;;;;2.20;1.27;;;4.20;99.90;;;;;;5003057;28;20505;-64
2023/11/13 08:01:17;;;;;;;1.92;1.13;;;4.30;99.90;;;;;;5035740;28;20044;-64
2023/11/13 08:03:43;;;;;;;1.50;1.30;;;4.30;99.90;;;;;;5004892;28;20045;-65
2023/11/13 08:06:11;;;;;;;2.63;1.83;;;4.30;99.90;;;;;;5010019;28;20042;-64
2023/11/13 08:08:37;;;;;;;2.53;2.05;;;4.40;99.90;;;;;;5006830;28;20042;-64
2023/11/13 08:11:06;;;;;;;2.05;1.60;;;4.40;99.90;;;;;;5001511;28;20137;-64
2023/11/13 08:13:34;;;;;;;2.58;1.90;;;4.50;99.90;;;;;;5005413;28;20056;-65
2023/11/13 08:16:00;;;;;;;3.22;2.17;;;4.50;99.90;;;;;;5001401;28;20069;-65
2023/11/13 08:18:25;;;;;;;4.20;2.17;;;4.50;99.90;;;;;;5005508;28;20054;-64
2023/11/13 08:20:51;;;;;;;3.05;2.15;;;4.70;99.90;;;;;;5030329;28;20119;-65
2023/11/13 08:23:17;;;;;;;2.75;1.73;;;4.70;99.90;;;;;;5005989;28;20041;-64
2023/11/13 08:25:48;;;;;;;2.75;1.92;;;4.70;99.90;;;;;;4998530;28;20147;-66
2023/11/13 08:28:14;;;;;;;2.60;1.25;;;4.80;99.90;;;;;;5005600;28;20042;-65
2023/11/13 08:30:46;;;;;;;3.95;1.77;;;4.90;99.90;;;;;;5008159;28;20494;-64
2023/11/13 08:33:12;;;;;;;2.28;1.35;;;4.90;99.90;;;;;;5004015;28;20041;-64
2023/11/13 08:35:38;;;;;;;4.18;1.50;;;4.90;99.90;;;;;;5005585;28;20034;-64
2023/11/13 08:38:08;;;;;;;6.03;1.33;;;5.00;99.90;;;;;;5000343;28;20367;-64
2023/11/13 08:40:35;;;;;;;3.30;1.70;;;4.90;99.90;;;;;;5005165;28;20046;-64
2023/11/13 08:43:06;;;;;;;2.35;1.52;;;5.00;99.90;;;;;;5003469;28;20042;-64
2023/11/13 08:45:32;;;;;;;2.67;1.38;;;5.00;99.90;;;;;;5033741;28;20338;-65
2023/11/13 08:47:59;;;;;;;1.52;1.00;;;5.10;99.90;;;;;;5007225;28;20053;-64
2023/11/13 08:50:25;;;;;;;3.95;1.92;;;5.10;99.90;;;;;;5006275;28;20045;-65
2023/11/13 08:52:53;;;;;;;3.20;1.83;;;5.20;99.90;;;;;;5006353;28;20414;-64
2023/11/13 08:55:21;;;;;;;1.73;1.38;;;5.20;99.90;;;;;;5005891;28;20085;-64
2023/11/13 08:57:49;;;;;;;2.33;1.67;;;5.20;99.90;;;;;;5028984;28;20145;-65
2023/11/13 09:00:22;;;;;;;2.65;1.95;;;5.20;99.90;;;;;;5005915;28;20553;-64
2023/11/13 09:02:49;;;;;;;2.53;1.70;;;5.30;99.90;;;;;;5006211;28;20041;-64
2023/11/13 09:05:15;;;;;;;2.08;1.60;;;5.30;99.90;;;;;;5002539;28;20034;-64
2023/11/13 09:07:42;;;;;;;6.38;2.67;;;5.30;99.90;;;;;;4998331;28;20042;-65
2023/11/13 09:10:11;;;;;;;5.82;2.00;;;5.40;99.90;;;;;;5007036;28;20147;-64
2023/11/13 09:12:39;;;;;;;5.70;2.30;;;5.40;99.90;;;;;;5007476;28;20057;-64
2023/11/13 09:15:12;;;;;;;3.22;2.03;;;5.40;99.90;;;;;;5004274;28;20057;-64
2023/11/13 09:17:43;;;;;;;5.78;2.85;;;5.50;99.90;;;;;;5003469;28;20048;-64
2023/11/13 09:20:11;;;;;;;7.38;2.78;;;5.50;99.90;;;;;;5002696;28;20120;-64
2023/11/13 09:22:37;;;;;;;4.13;2.47;;;5.60;99.90;;;;;;5002378;28;20041;-64
2023/11/13 09:25:04;;;;;;;5.13;1.80;;;5.50;99.90;;;;;;5028891;28;20164;-65
2023/11/13 09:27:30;;;;;;;7.22;2.75;;;5.60;99.90;;;;;;5001988;28;20053;-64
2023/11/13 09:29:57;;;;;;;5.05;2.50;;;5.60;99.90;;;;;;5005797;28;20049;-64
2023/11/13 09:32:23;;;;;;;3.75;2.45;;;5.60;99.90;;;;;;5002525;28;20038;-65
2023/11/13 09:34:50;;;;;;;4.53;2.33;;;5.70;99.90;;;;;;5001691;28;20559;-64
2023/11/13 09:37:21;;;;;;;2.88;2.35;;;5.70;99.90;;;;;;5002988;28;20113;-64
2023/11/13 09:39:48;;;;;;;4.90;3.42;;;5.70;99.90;;;;;;5037907;28;20046;-65
2023/11/13 09:42:16;;;;;;;7.32;2.60;;;5.80;99.90;;;;;;5010966;28;20371;-64
2023/11/13 09:44:43;;;;;;;5.72;3.15;;;5.80;99.90;;;;;;5000025;28;20042;-65
2023/11/13 09:47:10;;;;;;;4.38;1.90;;;5.90;99.90;;;;;;5010004;28;20046;-64
2023/11/13 09:49:43;;;;;;;8.10;3.38;;;5.90;99.90;;;;;;5007499;28;20038;-64
2023/11/13 09:52:12;;;;;;;5.93;3.08;;;5.90;99.90;;;;;;5003863;28;20049;-64
2023/11/13 09:54:39;;;;;;;6.72;2.42;;;5.90;99.90;;;;;;5000363;28;20465;-64
2023/11/13 09:57:09;;;;;;;6.88;2.92;;;5.90;99.90;;;;;;5004964;28;20080;-65
2023/11/13 09:59:36;;;;;;;2.22;1.63;;;5.90;99.90;;;;;;5007190;28;20398;-65
2023/11/13 10:02:07;;;;;;;5.32;2.58;;;6.00;99.90;;;;;;5026558;28;20184;-64
2023/11/13 10:04:34;;;;;;;2.95;2.17;;;6.00;99.90;;;;;;5005983;28;20038;-64
2023/11/13 10:07:02;;;;;;;2.72;1.88;;;6.00;99.90;;;;;;5006846;28;20093;-64
2023/11/13 10:09:30;;;;;;;6.50;1.98;;;6.10;99.90;;;;;;5039240;28;20053;-64
2023/11/13 10:11:58;;;;;;;3.83;2.17;;;6.20;99.90;;;;;;5006948;28;20041;-64
2023/11/13 10:14:25;;;;;;;7.05;2.58;;;6.20;99.90;;;;;;5000845;28;20450;-64
2023/11/13 10:17:00;;;;;;;5.70;3.17;;;6.20;99.90;;;;;;5004764;28;20290;-65
2023/11/13 10:19:26;;;;;;;;;;;6.30;99.90;;;;;;5004374;28;20049;-64
2023/11/13 10:21:52;;;;;;;4.32;2.45;;;6.30;99.90;;;;;;5001157;28;19976;-64
2023/11/13 10:24:24;;;;;;;4.72;2.17;;;6.40;99.90;;;;;;5004774;28;20042;-65
2023/11/13 10:26:50;;;;;;;2.47;1.55;;;6.50;99.90;;;;;;5002958;28;20042;-64
2023/11/13 10:29:27;;;;;;;5.32;2.67;;;6.40;99.90;;;;;;5009493;28;20045;-65
2023/11/13 10:31:56;;;;;;;4.32;2.00;;;6.50;99.90;;;;;;5003919;28;20045;-65
2023/11/13 10:34:22;;;;;;;5.00;2.78;;;6.50;99.90;;;;;;5008195;28;20041;-64
2023/11/13 10:37:06;;;;;;;6.65;2.30;;;6.60;99.90;;;;;;5003600;28;20144;-65
2023/11/13 10:39:36;;;;;;;6.82;2.65;;;6.60;99.90;;;;;;5001691;28;20066;-65
2023/11/13 10:42:16;;;;;;;3.13;2.10;;;6.70;99.90;;;;;;5002343;28;20103;-64
2023/11/13 10:44:41;;;;;;;4.03;2.40;;;6.70;99.90;;;;;;5005831;28;20053;-64
2023/11/13 10:47:21;;;;;;;4.38;2.58;;;6.80;99.90;;;;;;5004895;28;20398;-65
2023/11/13 10:49:52;;;;;;;5.35;1.98;;;6.70;99.90;;;;;;5000998;28;20057;-65
2023/11/13 10:52:21;;;;;;;4.53;2.33;;;6.80;99.90;;;;;;4996077;28;20042;-65
2023/11/13 10:54:48;;;;;;;3.28;2.22;;;6.80;99.90;;;;;;5034300;28;20380;-65
2023/11/13 10:57:16;;;;;;;3.08;1.65;;;6.80;99.90;;;;;;5003793;28;20034;-65
2023/11/13 10:59:42;;;;;;;7.40;1.52;;;6.90;99.90;;;;;;5004863;28;20402;-65
2023/11/13 11:02:30;;;;;;;4.25;2.15;;;6.90;99.90;;;;;;4996044;28;20849;-65
2023/11/13 11:04:59;;;;;;;2.60;1.75;;;6.90;99.90;;;;;;5003218;28;20435;-64
2023/11/13 11:07:26;;;;;;;3.10;2.25;;;7.00;99.90;;;;;;4999883;28;20034;-65
2023/11/13 11:09:57;;;;;;;4.72;2.42;;;7.10;99.90;;;;;;5000777;28;20380;-65
2023/11/13 11:12:31;;;;;;;3.85;2.22;;;7.10;99.90;;;;;;5019447;28;20046;-65
2023/11/13 11:15:23;;;;;;;3.47;2.08;;;7.20;99.90;;;;;;5004542;28;20073;-65
2023/11/13 11:18:12;;;;;;;2.40;1.92;;;7.20;99.90;;;;;;5008955;28;20046;-65
2023/11/13 11:21:09;;;;;;;3.05;2.15;;;7.30;99.90;;;;;;5030766;28;20050;-65
2023/11/13 11:23:46;;;;;;;4.13;1.30;;;7.30;99.90;;;;;;5001755;28;20076;-64
2023/11/13 11:26:12;;;;;;;1.80;1.25;;;7.40;99.90;;;;;;5006511;28;20383;-65
2023/11/13 11:28:40;;;;;;;2.25;1.23;;;7.40;99.90;;;;;;5004843;28;20034;-65
2023/11/13 11:31:37;;;;;;;3.50;1.80;;;7.50;99.90;;;;;;5007789;28;20034;-66
2023/11/13 11:34:06;;;;;;;5.15;2.08;;;7.60;99.90;;;;;;5002588;28;20091;-65
2023/11/13 11:36:37;;;;;;;1.50;1.33;;;7.80;99.90;;;;;;5007500;28;20038;-66
2023/11/13 11:39:21;;;;;;;1.83;1.30;;;7.80;99.90;;;;;;4999074;28;20060;-65
2023/11/13 11:41:51;;;;;;;2.53;1.63;;;7.90;99.90;;;;;;5007819;28;20096;-65
2023/11/13 11:44:22;;;;;;;2.65;1.77;;;8.00;99.90;;;;;;5002763;28;20376;-65
2023/11/13 11:46:49;;;;;;;1.88;0.85;;;8.00;99.90;;;;;;5007860;28;20132;-64
2023/11/13 11:49:29;;;;;;;4.55;1.83;;;8.10;99.90;;;;;;4999977;28;20057;-64
2023/11/13 11:52:05;;;;;;;1.63;1.27;;;8.10;99.90;;;;;;5006494;28;20060;-65
2023/11/13 11:54:33;;;;;;;3.38;1.58;;;8.10;99.90;;;;;;5002671;28;20129;-65
2023/11/13 11:57:04;;;;;;;2.17;1.55;;;8.10;99.90;;;;;;5001986;28;20042;-64
2023/11/13 11:59:31;;;;;;;1.83;1.05;;;8.20;99.90;;;;;;5000642;28;20038;-65
2023/11/13 12:01:58;;;;;;;2.05;1.17;;;8.20;99.90;;;;;;5001891;28;20037;-65
2023/11/13 12:04:26;;;;;;;1.58;1.13;;;8.20;99.90;;;;;;5002903;28;20121;-65
2023/11/13 12:06:52;;;;;;;1.85;1.13;;;8.20;99.90;;;;;;5007045;28;20041;-65
2023/11/13 12:09:20;;;;;;;2.00;1.02;;;8.20;99.90;;;;;;5015235;28;20095;-65
2023/11/13 12:11:48;;;;;;;2.20;1.48;;;8.20;99.90;;;;;;5046626;28;20042;-66
2023/11/13 12:14:15;;;;;;;2.65;1.75;;;8.30;99.90;;;;;;5002125;28;20048;-65
2023/11/13 12:16:41;;;;;;;0.73;0.47;;;8.30;99.90;;;;;;4994568;28;20037;-66
2023/11/13 12:19:09;;;;;;;1.92;1.13;;;8.30;99.90;;;;;;5005418;28;20403;-66
2023/11/13 12:21:36;;;;;;;1.17;1.00;;;8.40;99.90;;;;;;5010717;28;20130;-66
2023/11/13 12:24:02;;;;;;;1.95;1.13;;;8.50;99.90;;;;;;5005045;28;20674;-65
2023/11/13 12:26:28;;;;;;;3.10;1.20;;;8.50;99.90;;;;;;5035816;28;20038;-65
2023/11/13 12:28:54;;;;;;;1.45;0.73;;;8.60;99.90;;;;;;5010085;28;20391;-65
2023/11/13 12:31:21;;;;;;;2.03;1.13;;;8.60;99.90;;;;;;5003508;28;20382;-64
2023/11/13 12:33:47;;;;;;;2.33;0.93;;;8.60;99.90;;;;;;5011703;28;20046;-65
2023/11/13 12:36:15;;;;;;;0.90;0.65;;;8.70;99.90;;;;;;5041780;28;20132;-65
2023/11/13 12:38:46;;;;;;;2.45;0.75;;;8.80;99.90;;;;;;5018361;28;20034;-65
2023/11/13 12:41:13;;;;;;;2.17;1.17;;;8.80;99.90;;;;;;5008922;28;20045;-65
2023/11/13 12:43:42;;;;;;;1.48;0.70;;;8.80;99.90;;;;;;5013834;28;20568;-65
2023/11/13 12:46:09;;;;;;;1.88;1.23;;;8.80;99.90;;;;;;5010787;28;20042;-66
2023/11/13 12:48:35;;;;;;;1.83;1.25;;;8.90;99.90;;;;;;5012406;28;20041;-65
2023/11/13 12:51:08;;;;;;;1.02;0.73;;;8.90;99.90;;;;;;5007735;28;20042;-66
2023/11/13 12:53:34;;;;;;;6.53;1.02;;;9.00;99.90;;;;;;5044766;28;20115;-66
2023/11/13 12:56:05;;;;;;;1.88;1.45;;;8.90;99.90;;;;;;5026430;28;20057;-66
2023/11/13 12:58:37;;;;;;;1.55;0.93;;;9.00;99.90;;;;;;5033200;28;20052;-67
2023/11/13 13:01:04;;;;;;;1.75;1.13;;;9.10;99.90;;;;;;4998897;28;20097;-67
2023/11/13 13:03:32;;;;;;;1.58;1.10;;;9.20;99.90;;;;;;5004323;28;20070;-66